Time;durP1;ratioP1;P1;durP2;ratioP2;P2;SDS_P1;SDS_P2;PMS_P1;PMS_P2;Temp;Humidity;BMP_temperature;BMP_pressure;BME280_temperature;BME280_humidity;BME280_pressure;Samples;Min_cycle;Max_cycle;Signal;HPM_P1;HPM_P2
2022/12/09 00:00:11;;;;;;;;;;;20.60;75.50;;;;;;5047046;28;20011;-69
2022/12/09 00:02:38;;;;;;;;;;;20.60;74.40;;;;;;5041946;28;20353;-68
2022/12/09 00:05:05;;;;;;;;;;;20.80;74.40;;;;;;5044088;28;20612;-66
2022/12/09 00:07:33;;;;;;;;;;;21.10;73.40;;;;;;5045077;28;19913;-67
2022/12/09 00:10:00;;;;;;;;;;;21.30;71.60;;;;;;5043464;28;19912;-66
2022/12/09 00:12:26;;;;;;;;;;;21.30;71.40;;;;;;5044470;28;19909;-66
2022/12/09 00:14:53;;;;;;;;;;;21.30;70.50;;;;;;5044875;28;19913;-70
2022/12/09 00:17:20;;;;;;;;;;;21.30;70.30;;;;;;5044265;28;20507;-67
2022/12/09 00:19:46;;;;;;;;;;;21.20;70.00;;;;;;5043632;28;19923;-68
2022/12/09 00:22:13;;;;;;;;;;;21.20;71.50;;;;;;5045381;28;19920;-67
2022/12/09 00:24:40;;;;;;;;;;;21.60;70.10;;;;;;5042979;28;20603;-66
2022/12/09 00:27:06;;;;;;;;;;;22.00;68.90;;;;;;5037486;28;19908;-67
2022/12/09 00:29:33;;;;;;;;;;;22.10;69.30;;;;;;5045216;28;19913;-67
2022/12/09 00:31:59;;;;;;;;;;;22.00;69.30;;;;;;5052325;28;20370;-67
2022/12/09 00:34:26;;;;;;;;;;;22.10;69.00;;;;;;5049791;28;19951;-67
2022/12/09 00:36:53;;;;;;;;;;;22.20;68.00;;;;;;5050658;28;19979;-67
2022/12/09 00:39:19;;;;;;;;;;;22.20;67.50;;;;;;5045178;28;19970;-67
2022/12/09 00:41:47;;;;;;;;;;;22.30;68.40;;;;;;5040362;28;19921;-68
2022/12/09 00:44:14;;;;;;;;;;;22.40;66.70;;;;;;5055389;28;19908;-66
2022/12/09 00:46:41;;;;;;;;;;;22.40;66.60;;;;;;5053726;28;20053;-68
2022/12/09 00:49:07;;;;;;;;;;;22.20;67.10;;;;;;5070260;28;20072;-66
2022/12/09 00:51:34;;;;;;;;;;;22.30;66.90;;;;;;5055076;28;20452;-67
2022/12/09 00:54:01;;;;;;;;;;;22.30;67.20;;;;;;5048904;28;20289;-66
2022/12/09 00:56:28;;;;;;;;;;;22.50;66.80;;;;;;5054711;28;20436;-64
2022/12/09 00:58:56;;;;;;;;;;;22.70;66.30;;;;;;5053209;28;19913;-67
2022/12/09 01:01:22;;;;;;;;;;;22.70;66.10;;;;;;5054204;28;20369;-65
2022/12/09 01:03:49;;;;;;;;;;;22.70;66.50;;;;;;5038510;28;20281;-66
2022/12/09 01:06:20;;;;;;;;;;;22.80;66.60;;;;;;5034681;28;19909;-67
2022/12/09 01:08:47;;;;;;;;;;;22.80;66.60;;;;;;5046689;28;19934;-64
2022/12/09 01:11:22;;;;;;;;;;;22.70;67.20;;;;;;5034590;28;19908;-67
2022/12/09 01:13:50;;;;;;;;;;;22.80;68.50;;;;;;5051169;28;19986;-67
2022/12/09 01:16:18;;;;;;;;;;;22.80;66.90;;;;;;5054945;28;19913;-68
2022/12/09 01:18:44;;;;;;;;;;;22.90;66.60;;;;;;5048018;28;19913;-68
2022/12/09 01:21:11;;;;;;;;;;;22.80;66.10;;;;;;5042610;28;20008;-66
2022/12/09 01:23:38;;;;;;;;;;;22.70;67.10;;;;;;5045834;28;19952;-67
2022/12/09 01:26:05;;;;;;;;;;;23.00;67.30;;;;;;5033208;28;20043;-66
2022/12/09 01:28:35;;;;;;;;;;;23.30;66.20;;;;;;5035471;28;19995;-67
2022/12/09 01:31:09;;;;;;;;;;;23.40;66.70;;;;;;5030863;28;19912;-67
2022/12/09 01:33:36;;;;;;;;;;;23.40;66.00;;;;;;5048004;28;20314;-66
2022/12/09 01:36:06;;;;;;;;;;;23.40;65.80;;;;;;5051441;28;19908;-67
2022/12/09 01:38:33;;;;;;;;;;;23.20;66.60;;;;;;5055843;28;19964;-66
2022/12/09 01:40:59;;;;;;;;;;;23.20;68.70;;;;;;5050912;28;19927;-68
2022/12/09 01:43:26;;;;;;;;;;;23.30;66.60;;;;;;5051046;28;19913;-66
2022/12/09 01:45:53;;;;;;;;;;;23.30;70.30;;;;;;5052696;28;19908;-66
2022/12/09 01:48:22;;;;;;;;;;;23.60;66.70;;;;;;5052455;28;19915;-67
2022/12/09 01:50:49;;;;;;;;;;;23.80;67.30;;;;;;5043797;28;19909;-68
2022/12/09 01:53:16;;;;;;;;;;;23.90;66.40;;;;;;5044273;28;19947;-66
2022/12/09 01:55:43;;;;;;;;;;;23.90;65.70;;;;;;5042233;28;20370;-67
2022/12/09 01:58:10;;;;;;;;;;;23.90;64.90;;;;;;5045187;28;19917;-66
2022/12/09 02:00:37;;;;;;;;;;;24.00;65.00;;;;;;5052936;28;20512;-67
2022/12/09 02:03:05;;;;;;;;;;;23.90;64.30;;;;;;5048826;28;20381;-68
2022/12/09 02:05:31;;;;;;;;;;;24.00;65.80;;;;;;5049673;28;20385;-69
2022/12/09 02:07:58;;;;;;;;;;;24.00;65.70;;;;;;5044723;28;19908;-67
2022/12/09 02:10:25;;;;;;;;;;;24.00;64.90;;;;;;5053254;28;19916;-67
2022/12/09 02:13:01;;;;;;;;;;;24.00;64.70;;;;;;5056355;28;19943;-68
2022/12/09 02:15:41;;;;;;;;;;;24.10;65.00;;;;;;5041804;28;19917;-68
2022/12/09 02:18:23;;;;;;;;;;;24.20;65.10;;;;;;5043838;28;19920;-67
2022/12/09 02:20:59;;;;;;;;;;;24.30;63.80;;;;;;5050854;28;20648;-67
2022/12/09 02:23:44;;;;;;;;;;;24.30;64.10;;;;;;5056744;28;20346;-67
2022/12/09 02:26:24;;;;;;;;;;;24.20;64.00;;;;;;5050199;28;20878;-67
2022/12/09 02:29:03;;;;;;;;;;;24.10;65.70;;;;;;5057650;28;19908;-67
2022/12/09 02:31:48;;;;;;;;;;;24.20;65.50;;;;;;5053921;28;19920;-68
2022/12/09 02:34:17;;;;;;;;;;;24.10;65.50;;;;;;5055126;28;19923;-70
2022/12/09 02:37:04;;;;;;;;;;;24.30;64.60;;;;;;5056742;28;19915;-66
2022/12/09 02:39:54;;;;;;;;;;;24.50;64.40;;;;;;5052380;28;19919;-67
2022/12/09 02:42:22;;;;;;;;;;;24.50;64.60;;;;;;5052039;28;19928;-67
2022/12/09 02:44:50;;;;;;;;;;;24.80;63.90;;;;;;5052558;28;19916;-67
2022/12/09 02:47:20;;;;;;;;;;;25.00;63.80;;;;;;5049354;28;19912;-70
2022/12/09 02:49:49;;;;;;;;;;;25.20;63.10;;;;;;5043984;28;20034;-68
2022/12/09 02:52:17;;;;;;;;;;;25.60;62.60;;;;;;5042726;28;19993;-69
2022/12/09 02:54:43;;;;;;;;;;;25.90;61.30;;;;;;5048715;28;19913;-67
2022/12/09 02:57:13;;;;;;;;;;;26.20;61.40;;;;;;5046992;28;19915;-69
2022/12/09 02:59:40;;;;;;;;;;;26.80;60.20;;;;;;5051787;28;19920;-67
2022/12/09 03:02:25;;;;;;;;;;;27.00;60.30;;;;;;5043367;28;19956;-67
2022/12/09 03:05:14;;;;;;;;;;;27.40;59.90;;;;;;5056409;28;20284;-67
2022/12/09 03:07:52;;;;;;;;;;;27.90;59.20;;;;;;5054207;28;20273;-66
2022/12/09 03:10:26;;;;;;;;;;;28.20;58.50;;;;;;5052922;28;19913;-67
2022/12/09 03:13:00;;;;;;;;;;;28.90;57.20;;;;;;5045265;28;19966;-65
2022/12/09 03:15:30;;;;;;;;;;;29.30;57.50;;;;;;5057781;28;19987;-69
2022/12/09 03:18:00;;;;;;;;;;;30.00;56.60;;;;;;5055128;28;19912;-67
2022/12/09 03:20:28;;;;;;;;;;;30.90;54.80;;;;;;5051683;28;20338;-67
2022/12/09 03:22:58;;;;;;;;;;;31.60;53.80;;;;;;5054455;28;19919;-68
2022/12/09 03:25:31;;;;;;;;;;;32.00;52.50;;;;;;5056734;28;20693;-68
2022/12/09 03:28:08;;;;;;;;;;;31.50;54.00;;;;;;5057014;28;20007;-68
2022/12/09 03:30:36;;;;;;;;;;;31.60;53.00;;;;;;5055245;28;19993;-68
2022/12/09 03:33:03;;;;;;;;;;;31.20;53.20;;;;;;5054981;28;19970;-68
2022/12/09 03:35:39;;;;;;;;;;;31.20;53.00;;;;;;5043641;28;19912;-69
2022/12/09 03:38:07;;;;;;;;;;;31.80;53.00;;;;;;5044987;28;20316;-70
2022/12/09 03:40:35;;;;;;;;;;;32.50;52.50;;;;;;5055370;28;19991;-68
2022/12/09 03:43:04;;;;;;;;;;;32.70;52.70;;;;;;5055849;28;19920;-66
2022/12/09 03:45:31;;;;;;;;;;;33.00;51.10;;;;;;5051817;28;19961;-67
2022/12/09 03:47:58;;;;;;;;;;;32.80;52.00;;;;;;5047046;28;19920;-66
2022/12/09 03:50:26;;;;;;;;;;;33.10;51.00;;;;;;5046760;28;20269;-67
2022/12/09 03:52:56;;;;;;;;;;;33.50;52.10;;;;;;5040505;28;19913;-68
2022/12/09 03:55:38;;;;;;;;;;;33.60;50.10;;;;;;5053486;28;20122;-66
2022/12/09 03:58:05;;;;;;;;;;;34.00;49.20;;;;;;5060617;28;20332;-67
2022/12/09 04:00:34;;;;;;;;;;;33.70;49.30;;;;;;5052612;28;19999;-67
2022/12/09 04:03:01;;;;;;;;;;;33.80;49.10;;;;;;5044811;28;19974;-67
2022/12/09 04:05:28;;;;;;;;;;;33.50;51.00;;;;;;5050524;28;19913;-66
2022/12/09 04:07:55;;;;;;;;;;;34.00;49.10;;;;;;5048340;28;20239;-70
2022/12/09 04:10:21;;;;;;;;;;;34.00;48.10;;;;;;5057085;28;19948;-70
2022/12/09 04:12:48;;;;;;;;;;;33.90;48.50;;;;;;5056447;28;19948;-70
2022/12/09 04:15:15;;;;;;;;;;;33.80;49.10;;;;;;5055283;28;20357;-68
2022/12/09 04:17:41;;;;;;;;;;;34.20;48.80;;;;;;5054144;28;19909;-68
2022/12/09 04:20:08;;;;;;;;;;;34.20;48.70;;;;;;5054550;28;20440;-67
2022/12/09 04:22:35;;;;;;;;;;;33.90;49.20;;;;;;5049945;28;19921;-67
2022/12/09 04:25:01;;;;;;;;;;;33.80;50.40;;;;;;5035764;28;19921;-69
2022/12/09 04:27:28;;;;;;;;;;;34.10;48.60;;;;;;5054202;28;19924;-68
2022/12/09 04:29:55;;;;;;;;;;;34.40;48.00;;;;;;5054271;28;19904;-69
2022/12/09 04:32:21;;;;;;;;;;;34.20;47.90;;;;;;5038292;28;19917;-68
2022/12/09 04:34:48;;;;;;;;;;;34.30;48.60;;;;;;5055449;28;19912;-67
2022/12/09 04:37:15;;;;;;;;;;;33.60;49.20;;;;;;5050509;28;19913;-67
2022/12/09 04:39:42;;;;;;;;;;;33.30;49.20;;;;;;5053173;28;19915;-67
2022/12/09 04:42:08;;;;;;;;;;;33.20;49.10;;;;;;5044620;28;20383;-67
2022/12/09 04:44:35;;;;;;;;;;;33.30;48.30;;;;;;5049337;28;19921;-67
2022/12/09 04:47:03;;;;;;;;;;;33.50;49.60;;;;;;5050819;28;20019;-68
2022/12/09 04:49:30;;;;;;;;;;;34.10;47.60;;;;;;5054383;28;20768;-67
2022/12/09 04:51:57;;;;;;;;;;;34.70;47.00;;;;;;5053701;28;20377;-68
2022/12/09 04:54:23;;;;;;;;;;;35.00;47.40;;;;;;5053804;28;19966;-67
2022/12/09 04:56:50;;;;;;;;;;;34.80;48.00;;;;;;5051857;28;20518;-66
2022/12/09 04:59:17;;;;;;;;;;;34.10;48.70;;;;;;5043985;28;19991;-67
2022/12/09 05:01:43;;;;;;;;;;;34.20;48.40;;;;;;5048339;28;19924;-67
2022/12/09 05:04:10;;;;;;;;;;;33.70;48.30;;;;;;5048070;28;19916;-66
2022/12/09 05:06:37;;;;;;;;;;;33.80;48.50;;;;;;5050343;28;19916;-67
2022/12/09 05:09:03;;;;;;;;;;;33.50;49.60;;;;;;5043338;28;19999;-68
2022/12/09 05:11:30;;;;;;;;;;;33.10;49.40;;;;;;5049680;28;20138;-67
2022/12/09 05:13:57;;;;;;;;;;;32.90;50.40;;;;;;5050912;28;19912;-66
2022/12/09 05:16:23;;;;;;;;;;;33.10;49.90;;;;;;5052291;28;20420;-67
2022/12/09 05:18:50;;;;;;;;;;;33.50;49.60;;;;;;5053480;28;20008;-67
2022/12/09 05:21:18;;;;;;;;;;;33.60;49.50;;;;;;5053671;28;19916;-68
2022/12/09 05:23:44;;;;;;;;;;;33.70;49.80;;;;;;5046070;28;19912;-67
2022/12/09 05:26:13;;;;;;;;;;;33.10;50.30;;;;;;5053395;28;19925;-68
2022/12/09 05:28:39;;;;;;;;;;;32.80;50.10;;;;;;5057099;28;19909;-68
2022/12/09 05:31:07;;;;;;;;;;;32.10;50.90;;;;;;5055923;28;19913;-69
2022/12/09 05:33:34;;;;;;;;;;;31.90;51.80;;;;;;5055948;28;19915;-66
2022/12/09 05:36:01;;;;;;;;;;;32.10;51.20;;;;;;5056255;28;20369;-67
2022/12/09 05:38:27;;;;;;;;;;;32.00;51.30;;;;;;5050218;28;19929;-66
2022/12/09 05:40:54;;;;;;;;;;;31.50;51.80;;;;;;5044543;28;19916;-67
2022/12/09 05:43:20;;;;;;;;;;;30.90;51.80;;;;;;5037741;28;19921;-67
2022/12/09 05:45:47;;;;;;;;;;;30.20;52.80;;;;;;5040628;28;20000;-68
2022/12/09 05:48:14;;;;;;;;;;;29.90;54.10;;;;;;5059675;28;20042;-67
2022/12/09 05:50:40;;;;;;;;;;;29.50;54.80;;;;;;5056534;28;19954;-65
2022/12/09 05:53:07;;;;;;;;;;;28.90;53.90;;;;;;5053812;28;19916;-67
2022/12/09 05:55:34;;;;;;;;;;;28.30;55.10;;;;;;5051900;28;19912;-64
2022/12/09 05:58:00;;;;;;;;;;;27.80;56.10;;;;;;5053986;28;20379;-68
2022/12/09 06:00:27;;;;;;;;;;;27.10;57.40;;;;;;5052865;28;19960;-68
2022/12/09 06:02:53;;;;;;;;;;;26.40;57.60;;;;;;5058766;28;19981;-67
2022/12/09 06:05:20;;;;;;;;;;;26.10;60.20;;;;;;5052629;28;19927;-65
2022/12/09 06:07:47;;;;;;;;;;;25.60;59.60;;;;;;5058426;28;19908;-68
2022/12/09 06:10:13;;;;;;;;;;;25.50;59.70;;;;;;5060653;28;19919;-66
2022/12/09 06:12:40;;;;;;;;;;;25.40;60.50;;;;;;5057508;28;19981;-67
2022/12/09 06:15:07;;;;;;;;;;;25.40;61.20;;;;;;5060080;28;19924;-67
2022/12/09 06:17:34;;;;;;;;;;;25.30;60.70;;;;;;5056611;28;19908;-68
2022/12/09 06:20:01;;;;;;;;;;;24.90;60.90;;;;;;5059910;28;20003;-67
2022/12/09 06:22:27;;;;;;;;;;;24.70;63.00;;;;;;5058778;28;19916;-67
2022/12/09 06:24:55;;;;;;;;;;;24.60;62.10;;;;;;5057929;28;19999;-67
2022/12/09 06:27:22;;;;;;;;;;;24.40;62.30;;;;;;5054818;28;19966;-67
2022/12/09 06:29:48;;;;;;;;;;;24.60;63.40;;;;;;5056300;28;20007;-66
2022/12/09 06:32:15;;;;;;;;;;;24.80;61.90;;;;;;5058157;28;20395;-65
2022/12/09 06:34:41;;;;;;;;;;;24.90;61.80;;;;;;5038400;28;19966;-67
2022/12/09 06:37:08;;;;;;;;;;;24.80;62.50;;;;;;5042804;28;19915;-66
2022/12/09 06:39:35;;;;;;;;;;;24.60;62.50;;;;;;5056737;28;19947;-68
2022/12/09 06:42:03;;;;;;;;;;;24.20;62.10;;;;;;5059025;28;19947;-68
2022/12/09 06:44:29;;;;;;;;;;;24.00;62.70;;;;;;5057959;28;19931;-67
2022/12/09 06:46:56;;;;;;;;;;;23.90;63.10;;;;;;5048007;28;19905;-66
2022/12/09 06:49:23;;;;;;;;;;;23.80;62.70;;;;;;5057821;28;19909;-67
2022/12/09 06:51:49;;;;;;;;;;;23.80;62.40;;;;;;5056589;28;20370;-67
2022/12/09 06:54:16;;;;;;;;;;;23.80;62.60;;;;;;5059847;28;20011;-66
2022/12/09 06:56:42;;;;;;;;;;;23.80;62.50;;;;;;5041423;28;19995;-68
2022/12/09 06:59:09;;;;;;;;;;;23.80;63.10;;;;;;5059493;28;19915;-67
2022/12/09 07:01:38;;;;;;;;;;;23.60;63.60;;;;;;5059408;28;19924;-67
2022/12/09 07:04:05;;;;;;;;;;;23.40;63.30;;;;;;5041632;28;19959;-68
2022/12/09 07:06:36;;;;;;;;;;;23.40;63.50;;;;;;5038624;28;19909;-67
2022/12/09 07:09:04;;;;;;;;;;;23.30;63.60;;;;;;5051154;28;19912;-66
2022/12/09 07:11:31;;;;;;;;;;;23.20;64.50;;;;;;5058100;28;19916;-68
2022/12/09 07:13:58;;;;;;;;;;;23.00;64.50;;;;;;5051799;28;19913;-65
2022/12/09 07:16:25;;;;;;;;;;;22.80;65.80;;;;;;5057717;28;20205;-65
2022/12/09 07:18:51;;;;;;;;;;;22.70;66.70;;;;;;5055933;28;20369;-67
2022/12/09 07:21:19;;;;;;;;;;;22.50;68.00;;;;;;5056163;28;19913;-67
2022/12/09 07:23:47;;;;;;;;;;;22.10;68.80;;;;;;5042312;28;20008;-67
2022/12/09 07:26:14;;;;;;;;;;;22.20;67.70;;;;;;5034063;28;20003;-68
2022/12/09 07:28:41;;;;;;;;;;;22.10;68.40;;;;;;5055810;28;19919;-68
2022/12/09 07:31:18;;;;;;;;;;;22.00;69.20;;;;;;5055329;28;19912;-67
2022/12/09 07:33:44;;;;;;;;;;;22.20;69.40;;;;;;5055920;28;20347;-68
2022/12/09 07:36:12;;;;;;;;;;;22.00;69.60;;;;;;5055452;28;19959;-67
2022/12/09 07:38:38;;;;;;;;;;;22.00;69.60;;;;;;5056807;28;20266;-68
2022/12/09 07:41:06;;;;;;;;;;;21.90;70.10;;;;;;5054970;28;19976;-67
2022/12/09 07:43:33;;;;;;;;;;;22.00;70.00;;;;;;5055698;28;19912;-67
2022/12/09 07:46:04;;;;;;;;;;;21.90;70.40;;;;;;5054837;28;19916;-68
2022/12/09 07:48:31;;;;;;;;;;;21.70;71.90;;;;;;5053576;28;19916;-68
2022/12/09 07:51:04;;;;;;;;;;;21.70;72.50;;;;;;5054934;28;19956;-68
2022/12/09 07:53:33;;;;;;;;;;;21.70;72.70;;;;;;5055346;28;19932;-67
2022/12/09 07:56:03;;;;;;;;;;;21.40;73.10;;;;;;5045981;28;19986;-67
2022/12/09 07:58:30;;;;;;;;;;;21.20;74.00;;;;;;5045922;28;20013;-68
2022/12/09 08:00:56;;;;;;;;;;;21.20;73.80;;;;;;5044561;28;19912;-67
2022/12/09 08:03:23;;;;;;;;;;;21.10;73.70;;;;;;5044190;28;20069;-67
2022/12/09 08:05:50;;;;;;;;;;;21.00;73.40;;;;;;5043772;28;19909;-67
2022/12/09 08:08:17;;;;;;;;;;;20.90;73.30;;;;;;5044860;27;20530;-67
2022/12/09 08:10:45;;;;;;;;;;;20.80;74.00;;;;;;5044688;28;19917;-66
2022/12/09 08:13:11;;;;;;;;;;;20.70;74.70;;;;;;5045518;28;19909;-66
2022/12/09 08:15:38;;;;;;;;;;;20.60;74.90;;;;;;5043004;28;21073;-66
2022/12/09 08:18:05;;;;;;;;;;;20.50;75.60;;;;;;5051265;28;19973;-66
2022/12/09 08:20:31;;;;;;;;;;;20.40;75.60;;;;;;5055528;28;20261;-66
2022/12/09 08:22:58;;;;;;;;;;;20.40;75.60;;;;;;5054842;28;19908;-66
2022/12/09 08:25:24;;;;;;;;;;;20.30;75.90;;;;;;5053873;28;20269;-65
2022/12/09 08:27:51;;;;;;;;;;;20.30;76.00;;;;;;5055588;28;19912;-66
2022/12/09 08:30:18;;;;;;;;;;;20.20;76.10;;;;;;5054840;28;20360;-69
2022/12/09 08:32:44;;;;;;;;;;;20.20;76.80;;;;;;5055246;28;20007;-68
2022/12/09 08:35:13;;;;;;;;;;;20.20;77.00;;;;;;5053951;28;19951;-67
2022/12/09 08:37:43;;;;;;;;;;;20.20;77.50;;;;;;5054360;28;19912;-67
2022/12/09 08:40:10;;;;;;;;;;;20.10;77.80;;;;;;5048733;28;19987;-67
2022/12/09 08:42:37;;;;;;;;;;;20.00;78.10;;;;;;5037137;28;19943;-67
2022/12/09 08:45:04;;;;;;;;;;;19.90;78.40;;;;;;5035718;28;19916;-66
2022/12/09 08:47:30;;;;;;;;;;;19.70;78.80;;;;;;5040758;28;20530;-66
2022/12/09 08:49:57;;;;;;;;;;;19.70;78.90;;;;;;5055134;28;19916;-67
2022/12/09 08:52:24;;;;;;;;;;;19.60;78.90;;;;;;5052743;28;19916;-65
2022/12/09 08:54:51;;;;;;;;;;;19.70;79.40;;;;;;5055543;28;19923;-68
2022/12/09 08:57:22;;;;;;;;;;;19.70;79.40;;;;;;5053052;28;19920;-66
2022/12/09 08:59:48;;;;;;;;;;;19.70;79.40;;;;;;5054058;28;19913;-65
2022/12/09 09:02:15;;;;;;;;;;;19.60;79.90;;;;;;5052853;28;19924;-66
2022/12/09 09:04:42;;;;;;;;;;;19.50;80.70;;;;;;5052268;28;19966;-67
2022/12/09 09:07:08;;;;;;;;;;;19.50;81.20;;;;;;5054576;28;20007;-67
2022/12/09 09:09:36;;;;;;;;;;;19.50;81.60;;;;;;5055133;28;19913;-67
2022/12/09 09:12:02;;;;;;;;;;;19.50;81.10;;;;;;5052731;28;19927;-66
2022/12/09 09:14:29;;;;;;;;;;;19.40;81.90;;;;;;5054046;28;20308;-65
2022/12/09 09:16:56;;;;;;;;;;;19.50;81.40;;;;;;5052668;28;19920;-68
2022/12/09 09:19:24;;;;;;;;;;;19.50;81.70;;;;;;5051027;28;19955;-68
2022/12/09 09:21:54;;;;;;;;;;;19.50;82.90;;;;;;5058649;28;19922;-64
2022/12/09 09:24:22;;;;;;;;;;;19.50;83.30;;;;;;5057510;28;19924;-65
2022/12/09 09:26:49;;;;;;;;;;;19.50;83.30;;;;;;5056629;28;19913;-65
2022/12/09 09:29:17;;;;;;;;;;;19.50;82.80;;;;;;5056701;28;19958;-66
2022/12/09 09:31:47;;;;;;;;;;;19.40;82.00;;;;;;5057819;28;19912;-66
2022/12/09 09:34:16;;;;;;;;;;;19.50;81.80;;;;;;5058585;28;19908;-64
2022/12/09 09:36:43;;;;;;;;;;;19.50;80.90;;;;;;5058991;28;19915;-65
2022/12/09 09:39:10;;;;;;;;;;;19.40;80.20;;;;;;5057321;28;19908;-66
2022/12/09 09:41:51;;;;;;;;;;;19.40;79.70;;;;;;5057520;28;20007;-64
2022/12/09 09:44:30;;;;;;;;;;;19.50;79.90;;;;;;5051424;28;19921;-67
2022/12/09 09:46:57;;;;;;;;;;;19.40;80.30;;;;;;5056237;28;20434;-65
2022/12/09 09:49:27;;;;;;;;;;;19.40;80.50;;;;;;5038329;28;19909;-65
2022/12/09 09:51:54;;;;;;;;;;;19.30;80.60;;;;;;5039620;28;20012;-66
2022/12/09 09:54:21;;;;;;;;;;;19.20;80.70;;;;;;5056674;28;19963;-65
2022/12/09 09:57:10;;;;;;;;;;;19.20;80.20;;;;;;5058004;28;19908;-67
2022/12/09 09:59:49;;;;;;;;;;;19.10;80.00;;;;;;5034165;28;20312;-67
2022/12/09 10:02:22;;;;;;;;;;;19.10;81.10;;;;;;5044744;28;20295;-67
2022/12/09 10:04:48;;;;;;;;;;;19.20;80.70;;;;;;5056893;28;20394;-68
2022/12/09 10:07:18;;;;;;;;;;;19.10;81.60;;;;;;5057784;28;19916;-67
2022/12/09 10:09:51;;;;;;;;;;;19.20;82.80;;;;;;5057917;28;20022;-67
2022/12/09 10:12:27;;;;;;;;;;;19.20;83.30;;;;;;5057675;28;19908;-66
2022/12/09 10:15:00;;;;;;;;;;;19.30;83.70;;;;;;5055672;28;19978;-68
2022/12/09 10:17:55;;;;;;;;;;;19.30;83.70;;;;;;5057851;28;19920;-67
2022/12/09 10:20:27;;;;;;;;;;;19.20;83.70;;;;;;5054010;28;20258;-65
2022/12/09 10:22:59;;;;;;;;;;;19.20;84.30;;;;;;5055591;28;20377;-66
2022/12/09 10:25:27;;;;;;;;;;;19.20;83.80;;;;;;5057738;28;20004;-66
2022/12/09 10:28:16;;;;;;;;;;;19.20;83.40;;;;;;5055295;28;20641;-68
2022/12/09 10:30:43;;;;;;;;;;;19.20;83.30;;;;;;5058713;28;19962;-66
2022/12/09 10:33:11;;;;;;;;;;;19.20;82.70;;;;;;5055972;28;19938;-67
2022/12/09 10:35:38;;;;;;;;;;;19.20;82.20;;;;;;5058088;28;20381;-67
2022/12/09 10:38:06;;;;;;;;;;;19.20;81.70;;;;;;5056163;28;20412;-66
2022/12/09 10:40:33;;;;;;;;;;;19.20;81.70;;;;;;5056813;28;19912;-67
2022/12/09 10:45:47;;;;;;;;;;;19.20;81.80;;;;;;5057384;28;19916;-67
2022/12/09 10:48:22;;;;;;;;;;;19.10;82.00;;;;;;5055472;28;19916;-68
2022/12/09 10:50:54;;;;;;;;;;;19.20;81.80;;;;;;5057088;28;19909;-66
2022/12/09 10:53:21;;;;;;;;;;;19.20;81.50;;;;;;5056361;28;19924;-64
2022/12/09 10:55:51;;;;;;;;;;;19.20;81.40;;;;;;5057255;28;19908;-64
2022/12/09 10:58:22;;;;;;;;;;;19.20;81.70;;;;;;5050315;28;19924;-67
2022/12/09 11:00:59;;;;;;;;;;;19.10;81.80;;;;;;5054108;28;19958;-66
2022/12/09 11:03:31;;;;;;;;;;;19.00;81.70;;;;;;5055490;28;19919;-66
2022/12/09 11:06:17;;;;;;;;;;;19.00;81.50;;;;;;5057539;28;19909;-67
2022/12/09 11:08:55;;;;;;;;;;;18.90;82.10;;;;;;5057653;28;20238;-64
2022/12/09 11:11:45;;;;;;;;;;;19.00;82.60;;;;;;5055083;28;19916;-66
2022/12/09 11:14:33;;;;;;;;;;;18.90;82.60;;;;;;5042072;28;19917;-68
2022/12/09 11:17:10;;;;;;;;;;;18.90;82.00;;;;;;5036971;28;19916;-67
2022/12/09 11:19:37;;;;;;;;;;;18.90;81.50;;;;;;5055599;28;19931;-67
2022/12/09 11:22:19;;;;;;;;;;;18.90;81.70;;;;;;5043732;28;19924;-66
2022/12/09 11:24:46;;;;;;;;;;;19.00;81.60;;;;;;5057601;28;20015;-66
2022/12/09 11:27:26;;;;;;;;;;;19.00;82.00;;;;;;5057313;28;19930;-65
2022/12/09 11:30:13;;;;;;;;;;;19.00;82.00;;;;;;5055955;28;19920;-64
2022/12/09 11:32:54;;;;;;;;;;;19.00;81.30;;;;;;5055078;28;19909;-64
2022/12/09 11:35:38;;;;;;;;;;;19.10;81.50;;;;;;5055711;28;19915;-66
2022/12/09 11:38:23;;;;;;;;;;;19.00;81.70;;;;;;5056481;28;20699;-63
2022/12/09 11:41:05;;;;;;;;;;;19.10;82.10;;;;;;5056405;28;20706;-66
2022/12/09 11:43:45;;;;;;;;;;;19.10;81.60;;;;;;5050118;28;19919;-64
2022/12/09 11:46:12;;;;;;;;;;;19.10;81.50;;;;;;5048803;28;19913;-66
2022/12/09 11:48:47;;;;;;;;;;;19.00;81.10;;;;;;5035653;28;20004;-66
2022/12/09 11:51:40;;;;;;;;;;;19.10;81.40;;;;;;5035849;28;19912;-67
2022/12/09 11:54:24;;;;;;;;;;;19.00;81.60;;;;;;5034713;28;20760;-67
2022/12/09 11:56:52;;;;;;;;;;;19.00;83.20;;;;;;5036981;28;19920;-68
2022/12/09 11:59:24;;;;;;;;;;;19.00;83.80;;;;;;5036139;28;19921;-69
2022/12/09 12:02:11;;;;;;;;;;;18.90;83.20;;;;;;5072643;28;19917;-67
2022/12/09 12:04:56;;;;;;;;;;;18.90;83.50;;;;;;5042452;28;19921;-67
2022/12/09 12:07:32;;;;;;;;;;;18.90;83.30;;;;;;5043704;28;20276;-67
2022/12/09 12:09:58;;;;;;;;;;;18.80;83.90;;;;;;5045436;28;20087;-67
2022/12/09 12:12:40;;;;;;;;;;;18.80;84.10;;;;;;5043198;28;19917;-67
2022/12/09 12:15:13;;;;;;;;;;;18.70;83.80;;;;;;5045499;28;19916;-69
2022/12/09 12:17:47;;;;;;;;;;;18.70;83.60;;;;;;5043336;28;19916;-67
2022/12/09 12:20:14;;;;;;;;;;;18.70;83.70;;;;;;5043217;28;20408;-66
2022/12/09 12:23:07;;;;;;;;;;;18.80;83.80;;;;;;5053891;28;19920;-68
2022/12/09 12:25:46;;;;;;;;;;;18.80;84.00;;;;;;5044582;28;19921;-67
2022/12/09 12:28:13;;;;;;;;;;;18.90;84.00;;;;;;5046487;28;19909;-68
2022/12/09 12:30:39;;;;;;;;;;;18.80;83.70;;;;;;5044269;28;19992;-64
2022/12/09 12:33:09;;;;;;;;;;;18.80;83.30;;;;;;5042848;28;19913;-65
2022/12/09 12:35:54;;;;;;;;;;;18.80;83.80;;;;;;5040995;28;19954;-65
2022/12/09 12:38:20;;;;;;;;;;;18.70;83.20;;;;;;5035434;28;20070;-67
2022/12/09 12:40:59;;;;;;;;;;;18.70;83.40;;;;;;5034507;28;19909;-67
2022/12/09 12:46:17;;;;;;;;;;;18.80;83.80;;;;;;5035983;28;19969;-66
2022/12/09 12:49:01;;;;;;;;;;;18.80;83.80;;;;;;5035448;28;19916;-66
2022/12/09 12:51:40;;;;;;;;;;;18.80;83.80;;;;;;5036280;28;19920;-68
2022/12/09 12:54:10;;;;;;;;;;;18.80;84.00;;;;;;5035616;28;19984;-69
2022/12/09 12:57:02;;;;;;;;;;;18.80;84.30;;;;;;5034982;28;20380;-67
2022/12/09 12:59:35;;;;;;;;;;;18.70;85.10;;;;;;5013205;28;20408;-64
2022/12/09 13:02:29;;;;;;;;;;;18.70;85.10;;;;;;5034159;28;19917;-66
2022/12/09 13:05:25;;;;;;;;;;;18.60;84.80;;;;;;5033634;28;19919;-65
2022/12/09 13:07:54;;;;;;;;;;;18.50;85.30;;;;;;5019888;28;19915;-64
2022/12/09 13:10:24;;;;;;;;;;;18.40;85.40;;;;;;5055038;28;19935;-64
2022/12/09 13:12:53;;;;;;;;;;;18.40;85.30;;;;;;5053373;28;19924;-68
2022/12/09 13:15:35;;;;;;;;;;;18.50;84.90;;;;;;5056294;28;20490;-67
2022/12/09 13:18:16;;;;;;;;;;;18.50;84.70;;;;;;5054274;28;19919;-67
2022/12/09 13:20:45;;;;;;;;;;;18.50;84.20;;;;;;5054488;28;19909;-65
2022/12/09 13:23:17;;;;;;;;;;;18.60;83.80;;;;;;5053056;28;19919;-64
2022/12/09 13:25:47;;;;;;;;;;;18.60;83.80;;;;;;5052991;28;19973;-65
2022/12/09 13:28:19;;;;;;;;;;;18.60;83.10;;;;;;5043161;28;19912;-64
2022/12/09 13:31:12;;;;;;;;;;;18.60;82.70;;;;;;5035224;28;19908;-66
2022/12/09 13:33:54;;;;;;;;;;;18.60;83.20;;;;;;5033606;28;19909;-66
2022/12/09 13:36:26;;;;;;;;;;;18.60;84.40;;;;;;5039973;28;20087;-65
2022/12/09 13:38:53;;;;;;;;;;;18.60;83.70;;;;;;5044544;28;19919;-67
2022/12/09 13:41:26;;;;;;;;;;;18.50;83.90;;;;;;5056083;28;19923;-65
2022/12/09 13:43:56;;;;;;;;;;;18.50;84.40;;;;;;5057483;28;19999;-67
2022/12/09 13:46:25;;;;;;;;;;;18.50;84.30;;;;;;5057817;28;19915;-65
2022/12/09 13:48:53;;;;;;;;;;;18.40;84.10;;;;;;5057421;28;19913;-66
2022/12/09 13:51:20;;;;;;;;;;;18.40;84.30;;;;;;5056238;28;19905;-65
2022/12/09 13:53:49;;;;;;;;;;;18.40;83.70;;;;;;5057144;28;20361;-66
2022/12/09 13:56:16;;;;;;;;;;;18.40;83.20;;;;;;5052371;28;19915;-65
2022/12/09 13:59:01;;;;;;;;;;;18.30;83.50;;;;;;5056774;28;19935;-64
2022/12/09 14:01:43;;;;;;;;;;;18.40;83.40;;;;;;5055455;28;19919;-65
2022/12/09 14:04:09;;;;;;;;;;;18.40;82.80;;;;;;5056920;28;19913;-67
2022/12/09 14:06:45;;;;;;;;;;;18.40;82.80;;;;;;5060593;28;19912;-64
2022/12/09 14:09:21;;;;;;;;;;;18.40;82.90;;;;;;5057327;28;20309;-65
2022/12/09 14:11:54;;;;;;;;;;;18.40;82.60;;;;;;5060102;28;19909;-67
2022/12/09 14:14:21;;;;;;;;;;;18.30;82.30;;;;;;5057143;28;19909;-65
2022/12/09 14:16:47;;;;;;;;;;;18.40;82.40;;;;;;5059366;28;19917;-66
2022/12/09 14:19:23;;;;;;;;;;;18.40;82.60;;;;;;5058092;28;19979;-66
2022/12/09 14:22:11;;;;;;;;;;;18.40;82.80;;;;;;5058959;28;19925;-65
2022/12/09 14:24:38;;;;;;;;;;;18.40;83.00;;;;;;5056575;28;19921;-64
2022/12/09 14:27:06;;;;;;;;;;;18.30;82.90;;;;;;5057798;28;19916;-64
2022/12/09 14:29:47;;;;;;;;;;;18.40;83.20;;;;;;5056143;28;20392;-68
2022/12/09 14:32:17;;;;;;;;;;;18.40;83.20;;;;;;5059047;28;20045;-64
2022/12/09 14:34:46;;;;;;;;;;;18.40;83.40;;;;;;5058496;28;19962;-66
2022/12/09 14:37:25;;;;;;;;;;;18.30;83.20;;;;;;5059861;28;19909;-66
2022/12/09 14:40:09;;;;;;;;;;;18.30;83.40;;;;;;5058816;28;19909;-65